Time;durP1;ratioP1;P1;durP2;ratioP2;P2;SDS_P1;SDS_P2;PMS_P1;PMS_P2;Temp;Humidity;BMP_temperature;BMP_pressure;BME280_temperature;BME280_humidity;BME280_pressure;Samples;Min_cycle;Max_cycle;Signal;HPM_P1;HPM_P2
2023/10/20 00:01:27;;;;;;;22.07;19.73;;;12.70;62.20;;;;;;4995796;28;20190;-88
2023/10/20 00:03:53;;;;;;;20.57;18.40;;;12.60;62.20;;;;;;4999645;28;20550;-88
2023/10/20 00:06:18;;;;;;;20.60;18.50;;;12.70;62.30;;;;;;4995227;28;20199;-88
2023/10/20 00:08:45;;;;;;;20.57;18.37;;;12.70;62.30;;;;;;5001080;28;20235;-88
2023/10/20 00:11:10;;;;;;;21.27;19.00;;;12.70;62.20;;;;;;4999590;28;20276;-88
2023/10/20 00:13:36;;;;;;;22.50;19.43;;;12.70;62.10;;;;;;4998094;28;20619;-88
2023/10/20 00:16:02;;;;;;;21.03;18.80;;;12.70;62.20;;;;;;5001785;28;20183;-88
2023/10/20 00:18:28;;;;;;;21.57;19.10;;;12.70;62.10;;;;;;4997677;28;20180;-88
2023/10/20 00:20:53;;;;;;;22.67;20.23;;;12.70;62.30;;;;;;5009082;28;20198;-88
2023/10/20 00:23:19;;;;;;;23.20;18.50;;;12.70;62.50;;;;;;5001098;28;20617;-88
2023/10/20 00:25:44;;;;;;;20.87;18.13;;;12.90;62.80;;;;;;4998797;28;20175;-88
2023/10/20 00:28:10;;;;;;;21.80;19.47;;;12.70;62.50;;;;;;5006960;28;20187;-88
2023/10/20 00:30:37;;;;;;;21.50;19.27;;;12.70;62.70;;;;;;4994340;28;20191;-88
2023/10/20 00:33:03;;;;;;;22.17;19.47;;;12.70;62.80;;;;;;4993326;28;20664;-89
2023/10/20 00:35:29;;;;;;;21.80;18.43;;;12.70;62.60;;;;;;5000643;28;20201;-88
2023/10/20 00:37:55;;;;;;;20.67;18.47;;;12.70;62.80;;;;;;4998939;28;20222;-86
2023/10/20 00:40:21;;;;;;;20.50;18.30;;;12.70;62.80;;;;;;5003952;28;20215;-86
2023/10/20 00:42:47;;;;;;;19.77;17.80;;;12.70;62.70;;;;;;5010973;28;20265;-85
2023/10/20 00:45:12;;;;;;;19.83;17.77;;;12.70;62.70;;;;;;5005401;28;20732;-85
2023/10/20 00:47:39;;;;;;;18.87;16.87;;;12.70;62.90;;;;;;5002381;28;20508;-85
2023/10/20 00:50:14;;;;;;;20.03;17.93;;;12.70;63.10;;;;;;4997757;28;20278;-86
2023/10/20 00:52:47;;;;;;;21.17;18.40;;;12.80;63.00;;;;;;5001333;28;20316;-85
2023/10/20 00:55:14;;;;;;;22.73;19.57;;;12.90;62.90;;;;;;5006257;28;20214;-85
2023/10/20 00:57:42;;;;;;;22.53;19.50;;;12.90;62.80;;;;;;5003787;28;20191;-85
2023/10/20 01:00:09;;;;;;;22.03;19.57;;;13.00;62.50;;;;;;4998480;28;20286;-85
2023/10/20 01:02:41;;;;;;;23.60;19.77;;;13.10;62.30;;;;;;5006033;28;20192;-86
2023/10/20 01:05:08;;;;;;;27.43;20.47;;;13.10;62.10;;;;;;5001544;28;20199;-86
2023/10/20 01:07:34;;;;;;;22.63;19.33;;;13.20;62.10;;;;;;4997719;28;20179;-86
2023/10/20 01:10:04;;;;;;;23.23;20.53;;;13.20;62.00;;;;;;4998251;28;20211;-86
2023/10/20 01:12:33;;;;;;;23.63;19.70;;;13.20;62.00;;;;;;5021599;28;20232;-85
2023/10/20 01:14:59;;;;;;;20.23;17.63;;;13.10;62.00;;;;;;4997910;28;20204;-86
2023/10/20 01:17:30;;;;;;;22.50;19.40;;;13.10;62.20;;;;;;5001557;28;20855;-86
2023/10/20 01:19:56;;;;;;;20.27;18.17;;;13.20;62.30;;;;;;5016075;28;20612;-85
2023/10/20 01:22:22;;;;;;;24.23;19.73;;;13.20;62.30;;;;;;5004617;28;20217;-86
2023/10/20 01:24:48;;;;;;;20.23;18.13;;;13.10;62.20;;;;;;5001065;28;20206;-86
2023/10/20 01:27:13;;;;;;;21.90;18.60;;;13.10;62.40;;;;;;5006176;28;20721;-86
2023/10/20 01:29:39;;;;;;;21.17;19.00;;;13.10;62.40;;;;;;4998255;28;20191;-86
2023/10/20 01:32:04;;;;;;;21.13;18.93;;;13.20;62.50;;;;;;4999133;28;20245;-85
2023/10/20 01:34:31;;;;;;;22.10;19.80;;;13.20;62.30;;;;;;5000831;28;20209;-86
2023/10/20 01:36:57;;;;;;;23.90;20.27;;;13.10;62.30;;;;;;5005765;28;20183;-85
2023/10/20 01:39:22;;;;;;;19.83;17.57;;;13.10;62.30;;;;;;5000555;28;20210;-89
2023/10/20 01:41:48;;;;;;;21.23;18.97;;;13.10;62.60;;;;;;5000451;28;20262;-89
2023/10/20 01:44:14;;;;;;;21.73;19.27;;;13.00;62.50;;;;;;5000705;28;20604;-88
2023/10/20 01:46:46;;;;;;;19.60;17.50;;;13.00;62.60;;;;;;4999229;28;20193;-88
2023/10/20 01:49:12;;;;;;;18.47;16.57;;;13.00;62.80;;;;;;5017539;28;20189;-87
2023/10/20 01:51:37;;;;;;;18.37;16.47;;;13.20;63.00;;;;;;5001170;28;20210;-88
2023/10/20 01:54:04;;;;;;;18.93;16.93;;;12.90;62.70;;;;;;5003405;28;20187;-89
2023/10/20 01:56:29;;;;;;;16.70;14.93;;;12.90;63.10;;;;;;4999254;28;20195;-91
2023/10/20 01:58:55;;;;;;;17.87;15.97;;;12.90;63.40;;;;;;5001479;28;20214;-91
2023/10/20 02:01:22;;;;;;;19.20;16.47;;;12.80;63.30;;;;;;4996744;28;20211;-86
2023/10/20 02:03:49;;;;;;;17.87;16.13;;;12.90;63.50;;;;;;5002504;28;20651;-88
2023/10/20 02:06:16;;;;;;;18.00;16.10;;;12.90;63.60;;;;;;4998513;28;20227;-89
2023/10/20 02:08:42;;;;;;;17.77;15.97;;;12.90;63.60;;;;;;5004635;28;20194;-88
2023/10/20 02:11:08;;;;;;;17.30;15.50;;;12.90;63.20;;;;;;5000334;28;20210;-90
2023/10/20 02:13:35;;;;;;;18.33;16.40;;;12.80;63.30;;;;;;5007096;28;20187;-89
2023/10/20 02:16:01;;;;;;;19.67;17.57;;;12.80;63.60;;;;;;4998653;28;20542;-88
2023/10/20 02:18:26;;;;;;;17.30;15.53;;;12.90;63.70;;;;;;5002703;28;20195;-88
2023/10/20 02:20:59;;;;;;;18.00;16.13;;;12.90;63.60;;;;;;4996862;28;20188;-89
2023/10/20 02:23:25;;;;;;;20.03;17.47;;;13.00;63.40;;;;;;4999657;28;20254;-89
2023/10/20 02:26:05;;;;;;;20.67;17.90;;;13.00;63.30;;;;;;5002304;28;20183;-87
2023/10/20 02:28:35;;;;;;;18.83;16.80;;;13.00;63.30;;;;;;5002904;28;20180;-88
2023/10/20 02:31:09;;;;;;;19.33;17.33;;;13.00;63.20;;;;;;5011587;28;20310;-88
2023/10/20 02:33:35;;;;;;;20.43;18.33;;;13.00;63.30;;;;;;5008052;28;20273;-89
2023/10/20 02:36:01;;;;;;;20.17;18.07;;;13.00;63.40;;;;;;5000756;28;20295;-88
2023/10/20 02:38:26;;;;;;;24.07;20.07;;;12.90;63.40;;;;;;4999941;28;20196;-89
2023/10/20 02:40:53;;;;;;;22.00;19.70;;;12.90;63.90;;;;;;5019988;28;20258;-90
2023/10/20 02:43:20;;;;;;;21.50;18.30;;;12.90;63.60;;;;;;5002982;28;20278;-90
2023/10/20 02:45:54;;;;;;;21.17;18.80;;;13.00;63.70;;;;;;4998675;28;20198;-87
2023/10/20 02:48:21;;;;;;;19.83;17.80;;;13.00;63.70;;;;;;5001381;28;20183;-89
2023/10/20 02:50:47;;;;;;;20.03;17.87;;;13.00;63.60;;;;;;5005591;28;20493;-89
2023/10/20 02:53:16;;;;;;;18.73;16.87;;;13.00;63.40;;;;;;5016002;28;20682;-89
2023/10/20 02:55:42;;;;;;;19.53;17.57;;;13.00;63.30;;;;;;5002586;28;20556;-90
2023/10/20 02:58:11;;;;;;;20.40;18.10;;;13.10;63.40;;;;;;5001767;28;20945;-89
2023/10/20 03:00:42;;;;;;;20.60;16.80;;;13.00;63.20;;;;;;5015081;28;20236;-91
2023/10/20 03:03:08;;;;;;;19.50;16.53;;;13.00;63.50;;;;;;4998960;28;20191;-91
2023/10/20 03:05:34;;;;;;;18.30;16.30;;;12.90;63.30;;;;;;5025098;28;20706;-90
2023/10/20 03:07:59;;;;;;;19.07;16.90;;;12.90;63.60;;;;;;4997539;28;20195;-89
2023/10/20 03:10:25;;;;;;;17.97;15.20;;;12.90;63.60;;;;;;4996396;28;20198;-88
2023/10/20 03:12:51;;;;;;;18.93;16.30;;;12.90;63.60;;;;;;5013904;28;20620;-88
2023/10/20 03:15:17;;;;;;;18.73;16.73;;;13.00;63.90;;;;;;5003327;28;20191;-91
2023/10/20 03:17:42;;;;;;;17.57;15.67;;;12.90;63.60;;;;;;5001930;28;20198;-88
2023/10/20 03:20:09;;;;;;;18.37;16.47;;;13.00;63.80;;;;;;4997000;28;20187;-88
2023/10/20 03:22:35;;;;;;;16.57;14.87;;;12.90;63.50;;;;;;5014375;28;20179;-88
2023/10/20 03:25:03;;;;;;;16.87;15.10;;;13.00;63.80;;;;;;4998987;28;20186;-89
2023/10/20 03:27:30;;;;;;;15.03;13.40;;;13.00;63.70;;;;;;5003120;28;20183;-88
2023/10/20 03:29:55;;;;;;;14.57;13.13;;;13.00;63.30;;;;;;5012450;28;20427;-88
2023/10/20 03:32:21;;;;;;;13.90;12.43;;;12.90;63.40;;;;;;5001127;28;20563;-89
2023/10/20 03:34:46;;;;;;;14.30;12.87;;;12.80;63.60;;;;;;5015148;28;20182;-88
2023/10/20 03:37:13;;;;;;;13.33;11.83;;;12.70;63.70;;;;;;4997302;28;20192;-90
2023/10/20 03:39:39;;;;;;;12.60;11.30;;;12.70;64.10;;;;;;4998170;28;20793;-90
2023/10/20 03:42:07;;;;;;;14.80;11.87;;;12.70;64.20;;;;;;5006189;28;20217;-91
2023/10/20 03:44:33;;;;;;;13.30;11.90;;;12.80;64.30;;;;;;4994087;28;20643;-88
2023/10/20 03:46:59;;;;;;;14.63;11.20;;;12.80;64.00;;;;;;5002258;28;20647;-89
2023/10/20 03:49:26;;;;;;;12.17;10.93;;;12.80;64.00;;;;;;4997490;28;20620;-90
2023/10/20 03:51:51;;;;;;;11.83;10.70;;;12.80;64.10;;;;;;5007163;28;20211;-89
2023/10/20 03:54:24;;;;;;;12.90;11.40;;;12.80;64.10;;;;;;5001197;28;20198;-88
2023/10/20 03:56:50;;;;;;;13.27;11.93;;;12.80;64.20;;;;;;5000681;28;20187;-90
2023/10/20 03:59:16;;;;;;;12.60;11.30;;;12.80;64.90;;;;;;5000858;28;20191;-90
2023/10/20 04:01:42;;;;;;;12.20;11.00;;;12.70;64.00;;;;;;4995890;28;20273;-87
2023/10/20 04:04:09;;;;;;;11.57;10.37;;;12.70;64.00;;;;;;4999023;28;20256;-88
2023/10/20 04:06:43;;;;;;;12.13;10.60;;;12.60;64.30;;;;;;4997617;28;20196;-90
2023/10/20 04:09:10;;;;;;;12.97;11.67;;;12.60;64.40;;;;;;5013495;28;20318;-91
2023/10/20 04:11:37;;;;;;;12.73;11.43;;;12.60;64.70;;;;;;4992805;28;20215;-87
2023/10/20 04:14:05;;;;;;;12.63;11.27;;;12.70;64.80;;;;;;4995175;28;20198;-88
2023/10/20 04:16:42;;;;;;;12.00;10.80;;;12.70;64.40;;;;;;4994634;28;20192;-92
2023/10/20 04:19:14;;;;;;;13.37;12.07;;;12.70;64.50;;;;;;4997428;28;20198;-89
2023/10/20 04:21:43;;;;;;;13.80;11.57;;;12.70;64.70;;;;;;5000541;28;20666;-91
2023/10/20 04:24:09;;;;;;;13.73;11.03;;;12.70;64.70;;;;;;5002319;28;20647;-88
2023/10/20 04:26:36;;;;;;;11.37;10.27;;;12.60;64.80;;;;;;4999115;28;20660;-88
2023/10/20 04:29:23;;;;;;;12.37;11.07;;;12.60;64.70;;;;;;4994419;28;20540;-89
2023/10/20 04:43:37;;;;;;;14.33;10.43;;;12.60;65.20;;;;;;5024179;28;20245;-90
2023/10/20 04:51:13;;;;;;;11.73;9.40;;;12.70;64.70;;;;;;5025175;28;20221;-91
2023/10/20 04:53:48;;;;;;;11.00;9.77;;;12.80;64.80;;;;;;5008853;28;20178;-89
2023/10/20 05:07:05;;;;;;;14.57;10.13;;;12.70;64.80;;;;;;4989531;28;20180;-87
2023/10/20 05:09:33;;;;;;;11.63;10.20;;;12.70;64.80;;;;;;4969928;28;20200;-90
2023/10/20 05:11:59;;;;;;;10.30;9.30;;;12.80;64.50;;;;;;4964587;28;20227;-87
2023/10/20 05:14:25;;;;;;;10.20;9.20;;;12.80;64.50;;;;;;4956838;28;20614;-86
2023/10/20 05:16:51;;;;;;;13.07;9.63;;;12.80;65.40;;;;;;4957478;28;20203;-86
2023/10/20 05:19:16;;;;;;;10.53;9.13;;;12.80;64.20;;;;;;4956971;28;20958;-88
2023/10/20 05:21:42;;;;;;;10.00;8.80;;;12.90;64.40;;;;;;4967076;28;20184;-88
2023/10/20 05:24:08;;;;;;;10.57;8.27;;;12.90;64.20;;;;;;4960809;28;20261;-87
2023/10/20 05:26:34;;;;;;;10.73;7.80;;;12.80;64.00;;;;;;4968791;28;20182;-89
2023/10/20 05:29:00;;;;;;;9.83;7.87;;;12.80;64.20;;;;;;4980383;28;20203;-86
2023/10/20 05:31:26;;;;;;;10.23;8.03;;;12.80;64.20;;;;;;4980059;28;20623;-90
2023/10/20 05:33:53;;;;;;;9.27;8.20;;;12.70;64.60;;;;;;4976375;28;20246;-87
2023/10/20 05:36:19;;;;;;;9.83;8.47;;;12.80;64.80;;;;;;4970648;28;20224;-87
2023/10/20 05:38:44;;;;;;;9.00;7.93;;;12.80;64.50;;;;;;4965208;28;20210;-88
2023/10/20 05:41:11;;;;;;;7.70;7.00;;;12.80;64.20;;;;;;4986487;28;20214;-86
2023/10/20 05:43:38;;;;;;;7.33;6.63;;;12.80;64.20;;;;;;5001147;28;20219;-89
2023/10/20 05:46:04;;;;;;;8.23;7.43;;;12.80;63.90;;;;;;4998070;28;20793;-86
2023/10/20 05:48:30;;;;;;;8.83;7.93;;;12.80;64.10;;;;;;5000288;28;20187;-92
2023/10/20 05:50:57;;;;;;;7.10;6.40;;;12.80;64.00;;;;;;5002455;28;20691;-89
2023/10/20 05:53:24;;;;;;;7.37;6.37;;;12.90;64.00;;;;;;5000033;28;20187;-87
2023/10/20 05:55:49;;;;;;;9.37;7.07;;;12.80;63.80;;;;;;5000853;28;20211;-87
2023/10/20 05:58:15;;;;;;;7.50;6.53;;;12.80;63.80;;;;;;5004543;28;20229;-89
2023/10/20 06:00:40;;;;;;;6.80;6.10;;;12.80;64.30;;;;;;4998034;28;20192;-85
2023/10/20 06:03:06;;;;;;;7.33;6.57;;;12.80;63.90;;;;;;4999954;28;20246;-87
2023/10/20 06:05:33;;;;;;;7.70;5.37;;;12.80;63.80;;;;;;5002973;28;20197;-91
2023/10/20 06:07:58;;;;;;;7.33;5.80;;;12.80;63.60;;;;;;4999337;28;20644;-89
2023/10/20 06:10:24;;;;;;;8.43;6.07;;;12.70;63.70;;;;;;4997413;28;20234;-88
2023/10/20 06:12:52;;;;;;;5.60;4.97;;;12.80;63.60;;;;;;5001602;28;20709;-88
2023/10/20 06:15:19;;;;;;;7.20;6.00;;;12.70;63.30;;;;;;5000327;28;20183;-87
2023/10/20 06:17:45;;;;;;;9.17;6.53;;;12.80;63.60;;;;;;4993626;28;20188;-88
2023/10/20 06:20:13;;;;;;;9.13;6.37;;;12.60;64.30;;;;;;5000821;28;20661;-88
2023/10/20 06:22:41;;;;;;;7.10;5.90;;;12.50;63.40;;;;;;4994721;28;20188;-88
2023/10/20 06:25:12;;;;;;;11.47;6.87;;;12.50;63.70;;;;;;4995394;28;20743;-88
2023/10/20 06:27:39;;;;;;;7.93;6.80;;;12.50;63.80;;;;;;5005459;28;20681;-86
2023/10/20 06:30:14;;;;;;;9.77;6.90;;;12.60;63.60;;;;;;4996863;28;20183;-88
2023/10/20 06:32:42;;;;;;;9.50;7.80;;;12.40;64.00;;;;;;5018687;28;20213;-86
2023/10/20 06:35:09;;;;;;;18.53;10.50;;;12.40;64.00;;;;;;4996727;28;20277;-87
2023/10/20 06:40:03;;;;;;;20.43;13.33;;;12.40;63.70;;;;;;5001893;28;20559;-88
2023/10/20 06:42:29;;;;;;;19.87;12.17;;;12.40;64.00;;;;;;4998108;28;20233;-86
2023/10/20 06:44:55;;;;;;;19.73;13.83;;;12.40;64.20;;;;;;4999797;28;20236;-88
2023/10/20 06:47:21;;;;;;;17.67;12.23;;;12.50;63.80;;;;;;5001760;28;20552;-89
2023/10/20 06:49:47;;;;;;;18.50;11.43;;;12.50;63.90;;;;;;4999056;28;21359;-89
2023/10/20 06:52:17;;;;;;;13.77;9.83;;;12.50;63.80;;;;;;5004700;28;20203;-88
2023/10/20 06:54:49;;;;;;;13.93;7.73;;;12.40;63.90;;;;;;4993391;28;20184;-88
2023/10/20 06:57:15;;;;;;;9.43;6.90;;;12.50;63.80;;;;;;4996240;28;20705;-90
2023/10/20 06:59:41;;;;;;;13.00;9.27;;;12.40;63.60;;;;;;4993103;28;20211;-88
2023/10/20 07:02:07;;;;;;;17.57;11.97;;;12.40;63.50;;;;;;4993418;28;20184;-89
2023/10/20 07:04:33;;;;;;;16.97;12.67;;;12.30;63.90;;;;;;5006095;28;20178;-88
2023/10/20 07:06:59;;;;;;;18.97;12.77;;;12.30;63.50;;;;;;5002648;28;20658;-86
2023/10/20 07:09:24;;;;;;;16.00;10.00;;;12.10;63.40;;;;;;4991677;28;20190;-88
2023/10/20 07:11:50;;;;;;;10.13;8.23;;;12.10;64.10;;;;;;5001507;28;20214;-88
2023/10/20 07:14:16;;;;;;;13.03;8.60;;;12.10;64.40;;;;;;4999831;28;20194;-89
2023/10/20 07:16:41;;;;;;;10.37;7.57;;;12.20;64.30;;;;;;5016441;28;20184;-89
2023/10/20 07:19:07;;;;;;;11.20;7.50;;;12.30;64.10;;;;;;4995141;28;20183;-90
2023/10/20 07:21:34;;;;;;;12.97;7.80;;;12.40;64.00;;;;;;5010435;28;20210;-88
2023/10/20 07:24:02;;;;;;;9.70;7.47;;;12.40;63.90;;;;;;5010008;28;20245;-87
2023/10/20 07:26:29;;;;;;;10.33;7.60;;;12.40;63.70;;;;;;5006821;28;20206;-89
2023/10/20 07:28:54;;;;;;;11.73;7.93;;;12.40;64.50;;;;;;5009222;28;20178;-89
2023/10/20 07:31:21;;;;;;;10.53;7.17;;;12.30;63.60;;;;;;5000780;28;20203;-88
2023/10/20 07:33:49;;;;;;;11.47;7.10;;;12.30;63.40;;;;;;5007832;28;20190;-89
2023/10/20 07:36:15;;;;;;;11.03;7.67;;;12.20;63.70;;;;;;5002693;28;20604;-89
2023/10/20 07:38:42;;;;;;;10.30;7.13;;;12.20;64.00;;;;;;5015426;28;20183;-88
2023/10/20 07:41:11;;;;;;;13.00;8.13;;;12.10;63.80;;;;;;4997895;28;20184;-90
2023/10/20 07:43:37;;;;;;;15.97;7.83;;;12.20;64.00;;;;;;5025429;28;20226;-89
2023/10/20 07:46:03;;;;;;;13.70;9.80;;;12.10;64.10;;;;;;4993011;28;20197;-90
2023/10/20 07:48:32;;;;;;;14.07;11.90;;;12.20;64.40;;;;;;4999081;28;20175;-88
2023/10/20 07:50:59;;;;;;;11.67;9.03;;;12.10;64.00;;;;;;5000744;28;20219;-89
2023/10/20 07:53:29;;;;;;;12.93;9.03;;;12.10;64.30;;;;;;5003466;28;20672;-90
2023/10/20 07:55:55;;;;;;;15.57;8.80;;;12.10;64.40;;;;;;4995771;28;20179;-89
2023/10/20 07:58:21;;;;;;;11.30;8.03;;;12.30;64.70;;;;;;5009404;28;20179;-88
2023/10/20 08:00:47;;;;;;;11.03;7.73;;;12.10;64.60;;;;;;5003807;28;20190;-90
2023/10/20 08:03:12;;;;;;;14.90;7.83;;;12.40;65.00;;;;;;5000469;28;20522;-89
2023/10/20 08:09:00;;;;;;;13.27;8.40;;;12.30;63.80;;;;;;5001839;28;20214;-89
2023/10/20 08:11:27;;;;;;;16.30;9.53;;;12.20;64.00;;;;;;5005972;28;20230;-89
2023/10/20 08:13:52;;;;;;;15.27;9.00;;;12.20;64.30;;;;;;4998390;28;20183;-90
2023/10/20 08:16:20;;;;;;;12.63;9.07;;;12.20;64.50;;;;;;5002300;28;20199;-88
2023/10/20 08:18:45;;;;;;;14.43;9.07;;;12.10;64.80;;;;;;5000865;28;20447;-90
2023/10/20 08:21:12;;;;;;;16.07;9.90;;;12.30;64.90;;;;;;5007596;28;20281;-89
2023/10/20 08:23:38;;;;;;;11.67;8.93;;;12.30;64.60;;;;;;4991494;28;20190;-90
2023/10/20 08:26:05;;;;;;;15.20;8.97;;;12.30;64.30;;;;;;5001142;28;20245;-88
2023/10/20 08:28:30;;;;;;;17.13;8.93;;;12.30;64.60;;;;;;5003352;28;20647;-89
2023/10/20 08:31:13;;;;;;;12.90;8.17;;;12.40;64.50;;;;;;5008139;28;20195;-89
2023/10/20 08:33:39;;;;;;;15.90;8.77;;;12.30;64.10;;;;;;5005713;28;20282;-89
2023/10/20 08:36:13;;;;;;;17.97;9.83;;;12.30;64.00;;;;;;5007289;28;20612;-89
2023/10/20 08:38:40;;;;;;;16.90;9.60;;;12.20;64.20;;;;;;5002125;28;20190;-89
2023/10/20 08:41:10;;;;;;;13.83;9.07;;;12.20;64.60;;;;;;5002862;28;20236;-89
2023/10/20 08:43:37;;;;;;;17.13;10.53;;;12.20;64.90;;;;;;5010226;28;20218;-90
2023/10/20 08:46:04;;;;;;;16.33;12.43;;;12.30;65.00;;;;;;5004499;28;20186;-88
2023/10/20 08:48:31;;;;;;;23.13;15.10;;;12.40;64.60;;;;;;5001834;28;20648;-89
2023/10/20 08:50:59;;;;;;;20.53;13.57;;;12.40;64.20;;;;;;5002974;28;20242;-90
2023/10/20 08:53:26;;;;;;;20.03;12.83;;;12.30;64.10;;;;;;5009882;28;20642;-88
2023/10/20 08:55:52;;;;;;;15.87;11.53;;;12.40;64.60;;;;;;5011146;28;20286;-89
2023/10/20 08:58:21;;;;;;;19.20;11.23;;;12.40;64.50;;;;;;5005453;28;20268;-89
2023/10/20 09:00:46;;;;;;;14.20;10.00;;;12.40;64.40;;;;;;5006698;28;20612;-89
2023/10/20 09:03:12;;;;;;;13.73;9.33;;;12.40;64.20;;;;;;5009552;28;20173;-88
2023/10/20 09:05:37;;;;;;;19.03;11.67;;;12.40;64.30;;;;;;5007273;28;20218;-89
2023/10/20 09:08:03;;;;;;;20.67;11.93;;;12.30;64.40;;;;;;4999452;28;20207;-88
2023/10/20 09:10:29;;;;;;;19.97;11.50;;;12.30;64.70;;;;;;5010183;28;20176;-89
2023/10/20 09:12:54;;;;;;;17.87;11.37;;;12.30;64.70;;;;;;5022119;28;20218;-88
2023/10/20 09:15:21;;;;;;;17.40;11.10;;;12.40;64.80;;;;;;5004375;28;20214;-88
2023/10/20 09:17:54;;;;;;;20.13;11.90;;;12.50;64.70;;;;;;5013798;28;20973;-89
2023/10/20 09:20:20;;;;;;;20.10;11.60;;;12.40;64.50;;;;;;5005913;28;20188;-88
2023/10/20 09:22:45;;;;;;;21.60;11.87;;;12.40;64.70;;;;;;5005061;28;20267;-89
2023/10/20 09:25:11;;;;;;;21.53;11.33;;;12.50;64.90;;;;;;5009343;28;20197;-88
2023/10/20 09:27:37;;;;;;;16.77;10.00;;;12.50;65.00;;;;;;5012533;28;20223;-90
2023/10/20 09:30:08;;;;;;;18.40;11.10;;;12.50;64.70;;;;;;5007406;28;20170;-89
2023/10/20 09:32:38;;;;;;;17.50;10.63;;;12.50;64.70;;;;;;5008259;28;20203;-87
2023/10/20 09:35:04;;;;;;;17.23;11.07;;;12.60;64.60;;;;;;4999812;28;20180;-89
2023/10/20 09:37:30;;;;;;;19.43;12.07;;;12.70;64.70;;;;;;5005694;28;20184;-89
2023/10/20 09:40:05;;;;;;;20.77;10.90;;;12.80;64.60;;;;;;5011365;28;20546;-90
2023/10/20 09:42:51;;;;;;;19.57;11.93;;;12.70;64.40;;;;;;5005339;28;20238;-88
2023/10/20 09:45:23;;;;;;;20.00;11.67;;;12.70;64.40;;;;;;4999542;28;20210;-89
2023/10/20 09:47:56;;;;;;;16.03;10.60;;;12.70;64.30;;;;;;5000689;28;20202;-88
2023/10/20 09:50:23;;;;;;;16.83;9.17;;;12.80;64.60;;;;;;5000968;28;20206;-88
2023/10/20 09:52:50;;;;;;;15.67;9.53;;;12.80;64.40;;;;;;5020219;28;20211;-88
2023/10/20 09:55:17;;;;;;;17.27;10.30;;;12.80;64.00;;;;;;5008325;28;20186;-89
2023/10/20 09:57:43;;;;;;;19.40;12.80;;;12.70;64.30;;;;;;5008927;28;20270;-90
2023/10/20 10:00:09;;;;;;;22.13;14.13;;;12.80;64.50;;;;;;5007758;28;20258;-90
2023/10/20 10:02:35;;;;;;;14.23;10.57;;;12.90;64.60;;;;;;5005716;28;20191;-89
2023/10/20 10:05:01;;;;;;;17.03;11.60;;;12.90;64.00;;;;;;5012867;28;20179;-90
2023/10/20 10:07:33;;;;;;;16.20;9.20;;;12.90;64.00;;;;;;5017404;28;20245;-89
2023/10/20 10:09:59;;;;;;;13.93;8.30;;;12.80;63.60;;;;;;5009513;28;20194;-88
2023/10/20 10:12:27;;;;;;;11.23;8.10;;;12.80;63.80;;;;;;5005967;28;20222;-91
2023/10/20 10:14:59;;;;;;;11.50;8.07;;;12.70;63.80;;;;;;4993223;28;20188;-90
2023/10/20 10:17:28;;;;;;;16.30;10.00;;;12.70;63.80;;;;;;5018293;28;20191;-90
2023/10/20 10:19:55;;;;;;;13.70;9.20;;;12.90;64.00;;;;;;5011068;28;20171;-90
2023/10/20 10:22:31;;;;;;;13.03;8.17;;;12.80;63.50;;;;;;5006468;28;20199;-88
2023/10/20 10:25:00;;;;;;;13.00;7.47;;;12.70;63.40;;;;;;5020879;28;20187;-88
2023/10/20 10:27:28;;;;;;;11.93;8.03;;;12.60;63.50;;;;;;5005765;28;20210;-89
2023/10/20 10:30:01;;;;;;;16.63;9.47;;;12.70;64.20;;;;;;4998851;28;20179;-88
2023/10/20 10:32:31;;;;;;;15.60;9.00;;;12.70;63.80;;;;;;4999014;28;20207;-90
2023/10/20 10:34:58;;;;;;;13.00;8.70;;;12.70;63.80;;;;;;5007550;28;20707;-89
2023/10/20 10:37:38;;;;;;;13.90;8.50;;;12.70;64.00;;;;;;5017590;28;20660;-90
2023/10/20 10:40:09;;;;;;;10.67;7.93;;;12.60;64.00;;;;;;5005610;28;20215;-91
2023/10/20 10:42:38;;;;;;;15.57;8.80;;;12.60;64.00;;;;;;5003433;28;20215;-89
2023/10/20 10:45:29;;;;;;;12.83;8.53;;;12.60;64.20;;;;;;5007654;28;20581;-90
2023/10/20 10:48:08;;;;;;;12.63;8.77;;;12.70;64.20;;;;;;5006654;28;20195;-90
2023/10/20 10:50:42;;;;;;;15.27;9.83;;;12.70;63.60;;;;;;5005720;28;20183;-89
2023/10/20 10:53:08;;;;;;;14.87;11.00;;;12.70;63.70;;;;;;4995627;28;20208;-90
2023/10/20 10:55:37;;;;;;;14.73;10.03;;;12.50;63.20;;;;;;5010367;28;20578;-89
2023/10/20 10:58:05;;;;;;;15.83;10.03;;;12.40;63.60;;;;;;5004988;28;20299;-88
2023/10/20 11:00:31;;;;;;;15.70;9.83;;;12.30;63.80;;;;;;5003868;28;20183;-89
2023/10/20 11:02:58;;;;;;;14.07;9.57;;;12.40;64.50;;;;;;5004241;28;20644;-89
2023/10/20 11:05:24;;;;;;;14.00;9.57;;;12.40;64.10;;;;;;5007740;28;20211;-88
2023/10/20 11:08:04;;;;;;;16.00;10.87;;;12.40;64.00;;;;;;5021631;28;20637;-88
2023/10/20 11:10:33;;;;;;;15.93;10.60;;;12.40;64.00;;;;;;5008951;28;20191;-88
2023/10/20 11:12:59;;;;;;;16.43;11.20;;;12.40;64.00;;;;;;5008326;28;20288;-89
2023/10/20 11:15:28;;;;;;;15.13;10.63;;;12.50;64.10;;;;;;5002740;28;20524;-88
2023/10/20 11:18:01;;;;;;;17.33;9.63;;;12.50;63.70;;;;;;5000003;28;20180;-90
2023/10/20 11:20:28;;;;;;;12.57;9.33;;;12.50;63.60;;;;;;5005804;28;20273;-90
2023/10/20 11:22:55;;;;;;;13.67;9.53;;;12.50;63.80;;;;;;5010531;28;20206;-89
2023/10/20 11:25:21;;;;;;;13.67;9.13;;;12.70;63.90;;;;;;5004417;28;20187;-89
2023/10/20 11:27:54;;;;;;;14.27;9.17;;;12.50;63.80;;;;;;5001698;28;20209;-89
2023/10/20 11:30:41;;;;;;;11.60;8.07;;;12.60;63.90;;;;;;5006130;28;20182;-88
2023/10/20 11:33:10;;;;;;;14.33;8.60;;;12.60;63.50;;;;;;5004341;28;20241;-88
2023/10/20 11:35:35;;;;;;;13.47;8.77;;;12.60;63.20;;;;;;5000083;28;20184;-90
2023/10/20 11:38:03;;;;;;;11.63;8.30;;;12.50;62.90;;;;;;5007722;28;20182;-90
2023/10/20 11:40:29;;;;;;;17.93;10.87;;;12.50;63.10;;;;;;5002992;28;20210;-92
2023/10/20 11:42:57;;;;;;;17.80;11.80;;;12.40;63.10;;;;;;4997717;28;20309;-89
2023/10/20 11:45:24;;;;;;;19.00;12.33;;;12.30;63.40;;;;;;5003070;28;20273;-90
2023/10/20 11:47:49;;;;;;;17.73;12.40;;;12.30;63.50;;;;;;4999493;28;20184;-89
2023/10/20 11:50:15;;;;;;;16.43;12.13;;;12.40;63.90;;;;;;5005071;28;20179;-88
2023/10/20 11:52:42;;;;;;;18.57;12.57;;;12.30;64.10;;;;;;4998537;28;20286;-88
2023/10/20 11:55:08;;;;;;;21.73;13.47;;;12.40;64.30;;;;;;4997116;28;20172;-87
2023/10/20 11:57:35;;;;;;;17.10;12.10;;;12.50;63.90;;;;;;5003255;28;20590;-88
2023/10/20 12:00:07;;;;;;;19.53;11.03;;;12.60;63.70;;;;;;5010781;28;20214;-88
2023/10/20 12:02:36;;;;;;;19.33;10.80;;;12.60;63.40;;;;;;4999189;28;20187;-86
2023/10/20 12:05:02;;;;;;;18.43;10.13;;;12.50;63.30;;;;;;4998715;28;20226;-89
2023/10/20 12:07:27;;;;;;;18.93;11.93;;;12.50;63.40;;;;;;5009508;28;20187;-88
2023/10/20 12:09:53;;;;;;;18.83;12.07;;;12.60;63.70;;;;;;5006142;28;20274;-89
2023/10/20 12:12:19;;;;;;;22.07;13.17;;;12.50;63.30;;;;;;5006262;28;20210;-89
2023/10/20 12:14:46;;;;;;;15.33;9.97;;;12.60;63.10;;;;;;5006675;28;20193;-87
2023/10/20 12:17:11;;;;;;;13.23;9.77;;;12.50;63.20;;;;;;5027843;28;20199;-87
2023/10/20 12:19:38;;;;;;;13.23;9.03;;;12.50;63.20;;;;;;4992917;28;20205;-87
2023/10/20 12:22:04;;;;;;;13.20;8.50;;;12.60;62.80;;;;;;5003141;28;20187;-87
2023/10/20 12:24:30;;;;;;;15.90;9.53;;;12.50;62.60;;;;;;5005278;28;20193;-87
2023/10/20 12:26:56;;;;;;;15.50;9.57;;;12.40;62.20;;;;;;4996820;28;20191;-87
2023/10/20 12:29:22;;;;;;;14.67;8.70;;;12.30;62.50;;;;;;5004250;28;20176;-87
2023/10/20 12:31:48;;;;;;;15.30;9.70;;;12.10;62.90;;;;;;5019082;28;20677;-87
2023/10/20 12:34:14;;;;;;;19.90;11.13;;;12.20;63.50;;;;;;5007465;28;20213;-87
2023/10/20 12:36:42;;;;;;;18.67;11.30;;;12.20;62.90;;;;;;5015391;28;20187;-87
2023/10/20 12:39:09;;;;;;;18.83;11.17;;;12.10;62.90;;;;;;5018033;28;20179;-87
2023/10/20 12:41:35;;;;;;;17.17;10.13;;;12.30;63.30;;;;;;5021882;28;20177;-88
2023/10/20 12:44:02;;;;;;;20.83;11.70;;;12.30;62.90;;;;;;5010415;28;20633;-87
2023/10/20 12:46:28;;;;;;;21.63;14.23;;;12.30;63.10;;;;;;5010657;28;20182;-87
2023/10/20 12:48:54;;;;;;;17.67;10.20;;;12.30;63.10;;;;;;5013423;28;20224;-87
2023/10/20 12:51:20;;;;;;;20.07;10.67;;;12.30;62.60;;;;;;5013636;28;20257;-87
2023/10/20 12:53:45;;;;;;;16.33;10.87;;;12.20;62.30;;;;;;5011117;28;20187;-88
2023/10/20 12:56:11;;;;;;;21.43;10.67;;;12.10;62.60;;;;;;5012673;28;20643;-88
2023/10/20 12:58:38;;;;;;;19.07;11.40;;;12.00;63.00;;;;;;5009677;28;20186;-88
2023/10/20 13:01:04;;;;;;;18.60;11.10;;;12.10;63.40;;;;;;5010116;28;20549;-88
2023/10/20 13:03:30;;;;;;;19.50;12.27;;;12.00;63.40;;;;;;5012369;28;20214;-87
2023/10/20 13:05:57;;;;;;;18.50;11.13;;;12.00;63.60;;;;;;5009656;28;20591;-87